sensor_id;sensor_type;location;lat;lon;timestamp;P1;durP1;ratioP1;P2;durP2;ratioP2
13147;SDS011;6639;50.956;4.242;2023-06-22T00:02:16;4.90;;;4.07;;
13147;SDS011;6639;50.956;4.242;2023-06-22T00:04:43;3.90;;;3.60;;
13147;SDS011;6639;50.956;4.242;2023-06-22T00:07:10;6.18;;;4.18;;
13147;SDS011;6639;50.956;4.242;2023-06-22T00:09:37;4.05;;;3.60;;
13147;SDS011;6639;50.956;4.242;2023-06-22T00:12:06;3.72;;;3.42;;
13147;SDS011;6639;50.956;4.242;2023-06-22T00:14:33;5.10;;;3.90;;
13147;SDS011;6639;50.956;4.242;2023-06-22T00:17:00;3.83;;;3.53;;
13147;SDS011;6639;50.956;4.242;2023-06-22T00:19:27;4.35;;;3.95;;
13147;SDS011;6639;50.956;4.242;2023-06-22T00:21:54;5.03;;;3.97;;
13147;SDS011;6639;50.956;4.242;2023-06-22T00:24:25;5.18;;;4.30;;
13147;SDS011;6639;50.956;4.242;2023-06-22T00:26:52;4.28;;;3.88;;
13147;SDS011;6639;50.956;4.242;2023-06-22T00:29:20;4.53;;;4.07;;
13147;SDS011;6639;50.956;4.242;2023-06-22T00:31:47;4.43;;;4.03;;
13147;SDS011;6639;50.956;4.242;2023-06-22T00:34:14;4.75;;;4.22;;
13147;SDS011;6639;50.956;4.242;2023-06-22T00:36:41;4.78;;;4.05;;
13147;SDS011;6639;50.956;4.242;2023-06-22T00:39:08;5.65;;;3.80;;
13147;SDS011;6639;50.956;4.242;2023-06-22T00:41:36;4.22;;;3.83;;
13147;SDS011;6639;50.956;4.242;2023-06-22T00:44:02;4.47;;;4.07;;
13147;SDS011;6639;50.956;4.242;2023-06-22T00:46:31;4.47;;;4.07;;
13147;SDS011;6639;50.956;4.242;2023-06-22T00:48:58;4.63;;;4.00;;
13147;SDS011;6639;50.956;4.242;2023-06-22T00:51:25;4.65;;;4.25;;
13147;SDS011;6639;50.956;4.242;2023-06-22T00:53:52;5.70;;;3.80;;
13147;SDS011;6639;50.956;4.242;2023-06-22T00:56:20;5.60;;;4.30;;
13147;SDS011;6639;50.956;4.242;2023-06-22T00:58:50;4.35;;;4.05;;
13147;SDS011;6639;50.956;4.242;2023-06-22T01:01:19;4.82;;;4.28;;
13147;SDS011;6639;50.956;4.242;2023-06-22T01:03:50;5.75;;;3.80;;
13147;SDS011;6639;50.956;4.242;2023-06-22T01:06:19;5.25;;;4.13;;
13147;SDS011;6639;50.956;4.242;2023-06-22T01:08:56;4.90;;;4.43;;
13147;SDS011;6639;50.956;4.242;2023-06-22T01:11:31;4.40;;;4.10;;
13147;SDS011;6639;50.956;4.242;2023-06-22T01:14:04;5.18;;;4.60;;
13147;SDS011;6639;50.956;4.242;2023-06-22T01:16:38;5.10;;;4.60;;
13147;SDS011;6639;50.956;4.242;2023-06-22T01:22:02;4.85;;;4.40;;
13147;SDS011;6639;50.956;4.242;2023-06-22T01:24:32;4.43;;;4.03;;
13147;SDS011;6639;50.956;4.242;2023-06-22T01:27:18;4.88;;;4.40;;
13147;SDS011;6639;50.956;4.242;2023-06-22T01:29:56;4.43;;;4.00;;
13147;SDS011;6639;50.956;4.242;2023-06-22T01:32:26;4.55;;;4.15;;
13147;SDS011;6639;50.956;4.242;2023-06-22T01:34:55;5.13;;;4.53;;
13147;SDS011;6639;50.956;4.242;2023-06-22T01:37:24;4.50;;;4.10;;
13147;SDS011;6639;50.956;4.242;2023-06-22T01:39:51;5.75;;;4.93;;
13147;SDS011;6639;50.956;4.242;2023-06-22T01:42:20;4.35;;;3.95;;
13147;SDS011;6639;50.956;4.242;2023-06-22T01:44:47;5.30;;;4.90;;
13147;SDS011;6639;50.956;4.242;2023-06-22T01:47:15;5.43;;;4.40;;
13147;SDS011;6639;50.956;4.242;2023-06-22T01:49:43;5.75;;;5.05;;
13147;SDS011;6639;50.956;4.242;2023-06-22T01:52:10;4.95;;;4.47;;
13147;SDS011;6639;50.956;4.242;2023-06-22T01:54:38;6.82;;;4.97;;
13147;SDS011;6639;50.956;4.242;2023-06-22T01:57:05;8.27;;;5.38;;
13147;SDS011;6639;50.956;4.242;2023-06-22T01:59:34;5.93;;;5.13;;
13147;SDS011;6639;50.956;4.242;2023-06-22T02:02:06;6.15;;;5.65;;
13147;SDS011;6639;50.956;4.242;2023-06-22T02:04:38;6.05;;;5.40;;
13147;SDS011;6639;50.956;4.242;2023-06-22T02:07:11;6.65;;;5.22;;
13147;SDS011;6639;50.956;4.242;2023-06-22T02:09:42;6.70;;;5.55;;
13147;SDS011;6639;50.956;4.242;2023-06-22T02:12:10;8.48;;;4.78;;
13147;SDS011;6639;50.956;4.242;2023-06-22T02:14:39;5.18;;;4.78;;
13147;SDS011;6639;50.956;4.242;2023-06-22T02:17:07;5.68;;;5.18;;
13147;SDS011;6639;50.956;4.242;2023-06-22T02:19:37;5.65;;;5.00;;
13147;SDS011;6639;50.956;4.242;2023-06-22T02:22:04;4.65;;;4.25;;
13147;SDS011;6639;50.956;4.242;2023-06-22T02:24:31;4.93;;;4.45;;
13147;SDS011;6639;50.956;4.242;2023-06-22T02:26:58;5.03;;;4.63;;
13147;SDS011;6639;50.956;4.242;2023-06-22T02:29:26;5.10;;;4.60;;
13147;SDS011;6639;50.956;4.242;2023-06-22T02:31:53;4.97;;;4.57;;
13147;SDS011;6639;50.956;4.242;2023-06-22T02:34:20;5.47;;;4.95;;
13147;SDS011;6639;50.956;4.242;2023-06-22T02:36:49;4.80;;;4.35;;
13147;SDS011;6639;50.956;4.242;2023-06-22T02:39:18;6.22;;;5.22;;
13147;SDS011;6639;50.956;4.242;2023-06-22T02:41:47;4.50;;;4.10;;
13147;SDS011;6639;50.956;4.242;2023-06-22T02:44:14;6.43;;;4.72;;
13147;SDS011;6639;50.956;4.242;2023-06-22T02:46:41;6.93;;;5.47;;
13147;SDS011;6639;50.956;4.242;2023-06-22T02:49:08;6.22;;;5.38;;
13147;SDS011;6639;50.956;4.242;2023-06-22T02:51:35;5.15;;;4.75;;
13147;SDS011;6639;50.956;4.242;2023-06-22T02:54:06;4.95;;;4.47;;
13147;SDS011;6639;50.956;4.242;2023-06-22T02:56:33;6.00;;;5.40;;
13147;SDS011;6639;50.956;4.242;2023-06-22T02:59:01;5.47;;;4.88;;
13147;SDS011;6639;50.956;4.242;2023-06-22T03:01:28;6.72;;;5.03;;
13147;SDS011;6639;50.956;4.242;2023-06-22T03:04:01;5.45;;;4.95;;
13147;SDS011;6639;50.956;4.242;2023-06-22T03:06:27;6.10;;;4.78;;
13147;SDS011;6639;50.956;4.242;2023-06-22T03:08:57;5.75;;;5.25;;
13147;SDS011;6639;50.956;4.242;2023-06-22T03:11:26;6.53;;;5.70;;
13147;SDS011;6639;50.956;4.242;2023-06-22T03:13:53;5.97;;;5.40;;
13147;SDS011;6639;50.956;4.242;2023-06-22T03:16:20;6.07;;;5.03;;
13147;SDS011;6639;50.956;4.242;2023-06-22T03:18:47;5.97;;;5.25;;
13147;SDS011;6639;50.956;4.242;2023-06-22T03:21:14;6.75;;;5.60;;
13147;SDS011;6639;50.956;4.242;2023-06-22T03:23:42;6.10;;;5.10;;
13147;SDS011;6639;50.956;4.242;2023-06-22T03:26:09;6.70;;;6.03;;
13147;SDS011;6639;50.956;4.242;2023-06-22T03:28:38;8.18;;;6.10;;
13147;SDS011;6639;50.956;4.242;2023-06-22T03:31:05;5.68;;;5.10;;
13147;SDS011;6639;50.956;4.242;2023-06-22T03:33:32;5.97;;;5.38;;
13147;SDS011;6639;50.956;4.242;2023-06-22T03:35:59;5.78;;;5.28;;
13147;SDS011;6639;50.956;4.242;2023-06-22T03:38:26;6.25;;;5.65;;
13147;SDS011;6639;50.956;4.242;2023-06-22T03:40:53;7.20;;;5.35;;
13147;SDS011;6639;50.956;4.242;2023-06-22T03:43:20;5.70;;;5.20;;
13147;SDS011;6639;50.956;4.242;2023-06-22T03:45:48;6.55;;;5.82;;
13147;SDS011;6639;50.956;4.242;2023-06-22T03:48:15;5.57;;;5.07;;
13147;SDS011;6639;50.956;4.242;2023-06-22T03:50:42;6.22;;;5.65;;
13147;SDS011;6639;50.956;4.242;2023-06-22T03:53:10;6.53;;;5.55;;
13147;SDS011;6639;50.956;4.242;2023-06-22T03:55:40;6.68;;;5.85;;
13147;SDS011;6639;50.956;4.242;2023-06-22T03:58:13;6.20;;;5.55;;
13147;SDS011;6639;50.956;4.242;2023-06-22T04:00:40;6.50;;;5.40;;
13147;SDS011;6639;50.956;4.242;2023-06-22T04:03:09;7.78;;;5.85;;
13147;SDS011;6639;50.956;4.242;2023-06-22T04:05:37;6.03;;;5.13;;
13147;SDS011;6639;50.956;4.242;2023-06-22T04:08:04;8.68;;;5.55;;
13147;SDS011;6639;50.956;4.242;2023-06-22T04:10:31;6.60;;;5.90;;
13147;SDS011;6639;50.956;4.242;2023-06-22T04:12:59;8.43;;;6.65;;
13147;SDS011;6639;50.956;4.242;2023-06-22T04:15:26;6.20;;;5.70;;
13147;SDS011;6639;50.956;4.242;2023-06-22T04:17:54;8.48;;;5.25;;
13147;SDS011;6639;50.956;4.242;2023-06-22T04:20:22;6.10;;;5.60;;
13147;SDS011;6639;50.956;4.242;2023-06-22T04:22:51;6.68;;;6.07;;
13147;SDS011;6639;50.956;4.242;2023-06-22T04:25:18;7.03;;;6.28;;
13147;SDS011;6639;50.956;4.242;2023-06-22T04:27:45;6.63;;;6.10;;
13147;SDS011;6639;50.956;4.242;2023-06-22T04:30:13;6.85;;;6.20;;
13147;SDS011;6639;50.956;4.242;2023-06-22T04:32:42;6.40;;;5.80;;
13147;SDS011;6639;50.956;4.242;2023-06-22T04:35:09;7.07;;;6.38;;
13147;SDS011;6639;50.956;4.242;2023-06-22T04:37:38;6.90;;;5.97;;
13147;SDS011;6639;50.956;4.242;2023-06-22T04:40:06;6.78;;;6.00;;
13147;SDS011;6639;50.956;4.242;2023-06-22T04:42:34;7.60;;;6.78;;
13147;SDS011;6639;50.956;4.242;2023-06-22T04:45:01;7.03;;;6.40;;
13147;SDS011;6639;50.956;4.242;2023-06-22T04:47:29;6.93;;;6.22;;
13147;SDS011;6639;50.956;4.242;2023-06-22T04:49:56;6.70;;;6.03;;
13147;SDS011;6639;50.956;4.242;2023-06-22T04:52:23;7.20;;;6.50;;
13147;SDS011;6639;50.956;4.242;2023-06-22T04:54:51;8.10;;;6.82;;
13147;SDS011;6639;50.956;4.242;2023-06-22T04:57:20;6.85;;;6.25;;
13147;SDS011;6639;50.956;4.242;2023-06-22T04:59:57;7.05;;;6.25;;
13147;SDS011;6639;50.956;4.242;2023-06-22T05:02:36;7.45;;;6.78;;
13147;SDS011;6639;50.956;4.242;2023-06-22T05:05:04;6.78;;;6.18;;
13147;SDS011;6639;50.956;4.242;2023-06-22T05:07:32;7.13;;;6.15;;
13147;SDS011;6639;50.956;4.242;2023-06-22T05:10:00;8.40;;;6.13;;
13147;SDS011;6639;50.956;4.242;2023-06-22T05:12:28;7.55;;;6.90;;
13147;SDS011;6639;50.956;4.242;2023-06-22T05:14:55;7.60;;;6.90;;
13147;SDS011;6639;50.956;4.242;2023-06-22T05:17:22;7.22;;;6.53;;
13147;SDS011;6639;50.956;4.242;2023-06-22T05:19:49;8.10;;;7.10;;
13147;SDS011;6639;50.956;4.242;2023-06-22T05:22:17;9.68;;;6.45;;
13147;SDS011;6639;50.956;4.242;2023-06-22T05:24:44;7.70;;;6.93;;
13147;SDS011;6639;50.956;4.242;2023-06-22T05:27:12;7.90;;;6.97;;
13147;SDS011;6639;50.956;4.242;2023-06-22T05:29:39;7.70;;;6.90;;
13147;SDS011;6639;50.956;4.242;2023-06-22T05:32:07;7.38;;;6.68;;
13147;SDS011;6639;50.956;4.242;2023-06-22T05:34:35;7.18;;;6.47;;
13147;SDS011;6639;50.956;4.242;2023-06-22T05:37:02;8.00;;;7.25;;
13147;SDS011;6639;50.956;4.242;2023-06-22T05:39:29;9.80;;;7.30;;
13147;SDS011;6639;50.956;4.242;2023-06-22T05:41:56;7.88;;;7.18;;
13147;SDS011;6639;50.956;4.242;2023-06-22T05:44:24;9.70;;;6.95;;
13147;SDS011;6639;50.956;4.242;2023-06-22T05:46:51;12.30;;;7.03;;
13147;SDS011;6639;50.956;4.242;2023-06-22T05:49:18;7.95;;;6.88;;
13147;SDS011;6639;50.956;4.242;2023-06-22T05:51:47;7.95;;;7.20;;
13147;SDS011;6639;50.956;4.242;2023-06-22T05:54:14;8.20;;;7.30;;
13147;SDS011;6639;50.956;4.242;2023-06-22T05:56:43;8.27;;;7.28;;
13147;SDS011;6639;50.956;4.242;2023-06-22T05:59:09;9.43;;;7.82;;
13147;SDS011;6639;50.956;4.242;2023-06-22T06:01:38;8.35;;;7.55;;
13147;SDS011;6639;50.956;4.242;2023-06-22T06:04:05;10.93;;;8.52;;
13147;SDS011;6639;50.956;4.242;2023-06-22T06:06:33;9.15;;;8.25;;
13147;SDS011;6639;50.956;4.242;2023-06-22T06:09:02;8.88;;;8.00;;
13147;SDS011;6639;50.956;4.242;2023-06-22T06:11:29;9.00;;;8.10;;
13147;SDS011;6639;50.956;4.242;2023-06-22T06:13:56;9.95;;;7.82;;
13147;SDS011;6639;50.956;4.242;2023-06-22T06:16:23;8.57;;;7.70;;
13147;SDS011;6639;50.956;4.242;2023-06-22T06:18:51;9.82;;;7.95;;
13147;SDS011;6639;50.956;4.242;2023-06-22T06:21:19;11.30;;;9.18;;
13147;SDS011;6639;50.956;4.242;2023-06-22T06:23:46;9.52;;;8.63;;
13147;SDS011;6639;50.956;4.242;2023-06-22T06:26:13;9.23;;;8.32;;
13147;SDS011;6639;50.956;4.242;2023-06-22T06:28:41;10.25;;;8.18;;
13147;SDS011;6639;50.956;4.242;2023-06-22T06:31:08;9.93;;;8.93;;
13147;SDS011;6639;50.956;4.242;2023-06-22T06:33:37;9.00;;;8.10;;
13147;SDS011;6639;50.956;4.242;2023-06-22T06:36:05;9.27;;;8.40;;
13147;SDS011;6639;50.956;4.242;2023-06-22T06:38:33;9.38;;;8.07;;
13147;SDS011;6639;50.956;4.242;2023-06-22T06:41:00;10.20;;;8.85;;
13147;SDS011;6639;50.956;4.242;2023-06-22T06:43:27;10.27;;;9.13;;
13147;SDS011;6639;50.956;4.242;2023-06-22T06:45:54;10.60;;;9.70;;
13147;SDS011;6639;50.956;4.242;2023-06-22T06:48:21;10.80;;;9.77;;
13147;SDS011;6639;50.956;4.242;2023-06-22T06:50:48;12.23;;;10.35;;
13147;SDS011;6639;50.956;4.242;2023-06-22T06:53:16;12.48;;;11.23;;
13147;SDS011;6639;50.956;4.242;2023-06-22T06:55:43;11.00;;;9.18;;
13147;SDS011;6639;50.956;4.242;2023-06-22T06:58:11;11.50;;;10.10;;
13147;SDS011;6639;50.956;4.242;2023-06-22T07:00:38;11.30;;;10.10;;
13147;SDS011;6639;50.956;4.242;2023-06-22T07:03:05;11.25;;;9.95;;
13147;SDS011;6639;50.956;4.242;2023-06-22T07:05:33;11.23;;;10.15;;
13147;SDS011;6639;50.956;4.242;2023-06-22T07:08:00;11.90;;;10.70;;
13147;SDS011;6639;50.956;4.242;2023-06-22T07:10:29;14.93;;;11.52;;
13147;SDS011;6639;50.956;4.242;2023-06-22T07:12:56;12.55;;;11.40;;
13147;SDS011;6639;50.956;4.242;2023-06-22T07:15:23;12.48;;;11.27;;
13147;SDS011;6639;50.956;4.242;2023-06-22T07:17:50;12.23;;;11.00;;
13147;SDS011;6639;50.956;4.242;2023-06-22T07:20:17;13.90;;;12.48;;
13147;SDS011;6639;50.956;4.242;2023-06-22T07:22:44;13.98;;;12.55;;
13147;SDS011;6639;50.956;4.242;2023-06-22T07:25:12;13.70;;;12.27;;
13147;SDS011;6639;50.956;4.242;2023-06-22T07:27:45;14.57;;;13.23;;
13147;SDS011;6639;50.956;4.242;2023-06-22T07:30:13;13.52;;;12.13;;
13147;SDS011;6639;50.956;4.242;2023-06-22T07:32:40;14.25;;;12.95;;
13147;SDS011;6639;50.956;4.242;2023-06-22T07:35:07;14.93;;;13.38;;
13147;SDS011;6639;50.956;4.242;2023-06-22T07:37:35;14.52;;;13.15;;
13147;SDS011;6639;50.956;4.242;2023-06-22T07:40:04;14.40;;;13.00;;
13147;SDS011;6639;50.956;4.242;2023-06-22T07:42:32;15.40;;;13.85;;
13147;SDS011;6639;50.956;4.242;2023-06-22T07:45:01;16.17;;;14.52;;
13147;SDS011;6639;50.956;4.242;2023-06-22T07:47:29;14.18;;;12.85;;
13147;SDS011;6639;50.956;4.242;2023-06-22T07:49:58;15.75;;;14.32;;
13147;SDS011;6639;50.956;4.242;2023-06-22T07:52:26;16.98;;;14.48;;
13147;SDS011;6639;50.956;4.242;2023-06-22T07:54:53;16.60;;;14.90;;
13147;SDS011;6639;50.956;4.242;2023-06-22T07:57:20;17.00;;;15.38;;
13147;SDS011;6639;50.956;4.242;2023-06-22T07:59:48;16.20;;;14.60;;
13147;SDS011;6639;50.956;4.242;2023-06-22T08:02:16;16.27;;;14.75;;
13147;SDS011;6639;50.956;4.242;2023-06-22T08:04:43;14.70;;;13.25;;
13147;SDS011;6639;50.956;4.242;2023-06-22T08:07:10;15.20;;;13.75;;
13147;SDS011;6639;50.956;4.242;2023-06-22T08:09:37;16.85;;;15.15;;
13147;SDS011;6639;50.956;4.242;2023-06-22T08:12:05;15.10;;;13.63;;
13147;SDS011;6639;50.956;4.242;2023-06-22T08:14:32;16.35;;;14.20;;
13147;SDS011;6639;50.956;4.242;2023-06-22T08:17:02;15.02;;;13.48;;
13147;SDS011;6639;50.956;4.242;2023-06-22T08:19:30;15.38;;;13.52;;
13147;SDS011;6639;50.956;4.242;2023-06-22T08:21:57;14.45;;;13.00;;
13147;SDS011;6639;50.956;4.242;2023-06-22T08:24:24;14.68;;;13.25;;
13147;SDS011;6639;50.956;4.242;2023-06-22T08:26:55;14.60;;;13.10;;
13147;SDS011;6639;50.956;4.242;2023-06-22T08:29:22;14.32;;;12.85;;
13147;SDS011;6639;50.956;4.242;2023-06-22T08:31:49;13.50;;;12.30;;
13147;SDS011;6639;50.956;4.242;2023-06-22T08:34:16;14.75;;;13.45;;
13147;SDS011;6639;50.956;4.242;2023-06-22T08:36:49;13.73;;;12.52;;
13147;SDS011;6639;50.956;4.242;2023-06-22T08:39:17;13.50;;;12.20;;
13147;SDS011;6639;50.956;4.242;2023-06-22T08:41:45;13.60;;;12.40;;
13147;SDS011;6639;50.956;4.242;2023-06-22T08:44:12;13.35;;;12.15;;
13147;SDS011;6639;50.956;4.242;2023-06-22T08:46:39;13.23;;;11.48;;
13147;SDS011;6639;50.956;4.242;2023-06-22T08:49:07;13.15;;;11.85;;
13147;SDS011;6639;50.956;4.242;2023-06-22T08:51:34;15.27;;;12.30;;
13147;SDS011;6639;50.956;4.242;2023-06-22T08:54:03;13.55;;;12.25;;
13147;SDS011;6639;50.956;4.242;2023-06-22T08:56:30;14.05;;;12.70;;
13147;SDS011;6639;50.956;4.242;2023-06-22T08:58:57;12.07;;;10.88;;
13147;SDS011;6639;50.956;4.242;2023-06-22T09:01:24;13.98;;;12.68;;
13147;SDS011;6639;50.956;4.242;2023-06-22T09:03:51;12.75;;;11.52;;
13147;SDS011;6639;50.956;4.242;2023-06-22T09:06:22;13.05;;;11.85;;
13147;SDS011;6639;50.956;4.242;2023-06-22T09:08:49;13.93;;;12.40;;
13147;SDS011;6639;50.956;4.242;2023-06-22T09:11:18;13.30;;;12.15;;
13147;SDS011;6639;50.956;4.242;2023-06-22T09:13:45;14.30;;;13.05;;
13147;SDS011;6639;50.956;4.242;2023-06-22T09:16:12;13.02;;;11.93;;
13147;SDS011;6639;50.956;4.242;2023-06-22T09:18:39;12.77;;;11.60;;
13147;SDS011;6639;50.956;4.242;2023-06-22T09:21:07;13.07;;;11.88;;
13147;SDS011;6639;50.956;4.242;2023-06-22T09:23:34;13.05;;;11.77;;
13147;SDS011;6639;50.956;4.242;2023-06-22T09:26:01;12.55;;;11.35;;
13147;SDS011;6639;50.956;4.242;2023-06-22T09:28:30;12.68;;;11.48;;
13147;SDS011;6639;50.956;4.242;2023-06-22T09:30:58;12.77;;;11.68;;
13147;SDS011;6639;50.956;4.242;2023-06-22T09:33:25;12.65;;;11.45;;
13147;SDS011;6639;50.956;4.242;2023-06-22T09:35:53;12.52;;;11.35;;
13147;SDS011;6639;50.956;4.242;2023-06-22T09:38:19;12.05;;;10.95;;
13147;SDS011;6639;50.956;4.242;2023-06-22T09:40:46;14.45;;;13.02;;
13147;SDS011;6639;50.956;4.242;2023-06-22T09:43:13;12.50;;;11.05;;
13147;SDS011;6639;50.956;4.242;2023-06-22T09:45:42;13.75;;;12.45;;
13147;SDS011;6639;50.956;4.242;2023-06-22T09:48:09;10.55;;;9.63;;
13147;SDS011;6639;50.956;4.242;2023-06-22T09:50:36;10.75;;;9.65;;
13147;SDS011;6639;50.956;4.242;2023-06-22T09:53:03;11.70;;;10.60;;
13147;SDS011;6639;50.956;4.242;2023-06-22T09:55:29;11.93;;;10.82;;
13147;SDS011;6639;50.956;4.242;2023-06-22T09:57:56;11.48;;;10.45;;
13147;SDS011;6639;50.956;4.242;2023-06-22T10:00:23;14.07;;;12.77;;
13147;SDS011;6639;50.956;4.242;2023-06-22T10:02:53;13.00;;;11.70;;
13147;SDS011;6639;50.956;4.242;2023-06-22T10:05:20;11.00;;;10.02;;
13147;SDS011;6639;50.956;4.242;2023-06-22T10:07:47;12.10;;;11.07;;
13147;SDS011;6639;50.956;4.242;2023-06-22T10:10:14;12.93;;;11.73;;
13147;SDS011;6639;50.956;4.242;2023-06-22T10:12:44;13.48;;;12.07;;
13147;SDS011;6639;50.956;4.242;2023-06-22T10:15:12;13.68;;;12.30;;
13147;SDS011;6639;50.956;4.242;2023-06-22T10:17:39;14.93;;;13.40;;
13147;SDS011;6639;50.956;4.242;2023-06-22T10:20:09;14.20;;;12.95;;
13147;SDS011;6639;50.956;4.242;2023-06-22T10:22:38;14.95;;;13.50;;
13147;SDS011;6639;50.956;4.242;2023-06-22T10:25:06;14.55;;;13.25;;
13147;SDS011;6639;50.956;4.242;2023-06-22T10:27:33;13.18;;;11.90;;
13147;SDS011;6639;50.956;4.242;2023-06-22T10:30:00;11.75;;;10.55;;
13147;SDS011;6639;50.956;4.242;2023-06-22T10:32:27;12.20;;;10.90;;
13147;SDS011;6639;50.956;4.242;2023-06-22T10:34:54;11.43;;;10.27;;
13147;SDS011;6639;50.956;4.242;2023-06-22T10:37:23;10.43;;;9.55;;
13147;SDS011;6639;50.956;4.242;2023-06-22T10:39:49;11.35;;;10.35;;
13147;SDS011;6639;50.956;4.242;2023-06-22T10:42:16;10.73;;;9.73;;
13147;SDS011;6639;50.956;4.242;2023-06-22T10:44:43;10.95;;;9.90;;
13147;SDS011;6639;50.956;4.242;2023-06-22T10:47:10;11.40;;;10.40;;
13147;SDS011;6639;50.956;4.242;2023-06-22T10:49:37;12.80;;;11.70;;
13147;SDS011;6639;50.956;4.242;2023-06-22T10:52:05;13.23;;;11.82;;
13147;SDS011;6639;50.956;4.242;2023-06-22T10:54:34;16.00;;;14.10;;
13147;SDS011;6639;50.956;4.242;2023-06-22T10:57:02;16.42;;;14.93;;
13147;SDS011;6639;50.956;4.242;2023-06-22T10:59:29;15.65;;;14.25;;
13147;SDS011;6639;50.956;4.242;2023-06-22T11:01:56;15.90;;;14.50;;
13147;SDS011;6639;50.956;4.242;2023-06-22T11:04:23;16.92;;;15.23;;
13147;SDS011;6639;50.956;4.242;2023-06-22T11:06:50;15.50;;;14.07;;
13147;SDS011;6639;50.956;4.242;2023-06-22T11:09:17;16.33;;;14.68;;
13147;SDS011;6639;50.956;4.242;2023-06-22T11:11:47;17.23;;;15.73;;
13147;SDS011;6639;50.956;4.242;2023-06-22T11:14:15;17.58;;;15.98;;
13147;SDS011;6639;50.956;4.242;2023-06-22T11:16:42;17.63;;;15.93;;
13147;SDS011;6639;50.956;4.242;2023-06-22T11:19:09;17.35;;;15.85;;
13147;SDS011;6639;50.956;4.242;2023-06-22T11:21:36;19.23;;;17.42;;
13147;SDS011;6639;50.956;4.242;2023-06-22T11:24:03;18.80;;;16.95;;
13147;SDS011;6639;50.956;4.242;2023-06-22T11:26:30;18.33;;;16.48;;
13147;SDS011;6639;50.956;4.242;2023-06-22T11:28:59;18.58;;;16.80;;
13147;SDS011;6639;50.956;4.242;2023-06-22T11:31:26;19.45;;;17.55;;
13147;SDS011;6639;50.956;4.242;2023-06-22T11:33:53;18.95;;;17.15;;
13147;SDS011;6639;50.956;4.242;2023-06-22T11:36:20;18.45;;;16.73;;
13147;SDS011;6639;50.956;4.242;2023-06-22T11:38:47;18.67;;;16.80;;
13147;SDS011;6639;50.956;4.242;2023-06-22T11:41:14;19.20;;;17.40;;
13147;SDS011;6639;50.956;4.242;2023-06-22T11:43:41;19.60;;;17.60;;
13147;SDS011;6639;50.956;4.242;2023-06-22T11:46:09;19.45;;;17.60;;
13147;SDS011;6639;50.956;4.242;2023-06-22T11:48:36;19.20;;;17.33;;
13147;SDS011;6639;50.956;4.242;2023-06-22T11:51:03;20.45;;;18.35;;
13147;SDS011;6639;50.956;4.242;2023-06-22T11:53:31;18.38;;;16.67;;
13147;SDS011;6639;50.956;4.242;2023-06-22T11:56:00;20.33;;;18.13;;
13147;SDS011;6639;50.956;4.242;2023-06-22T11:58:27;20.73;;;18.67;;
13147;SDS011;6639;50.956;4.242;2023-06-22T12:00:54;19.15;;;17.33;;
13147;SDS011;6639;50.956;4.242;2023-06-22T12:03:22;21.02;;;18.90;;
13147;SDS011;6639;50.956;4.242;2023-06-22T12:05:50;22.25;;;19.98;;
13147;SDS011;6639;50.956;4.242;2023-06-22T12:08:17;21.30;;;19.02;;
13147;SDS011;6639;50.956;4.242;2023-06-22T12:10:44;20.83;;;18.83;;
13147;SDS011;6639;50.956;4.242;2023-06-22T12:13:11;22.08;;;19.90;;
13147;SDS011;6639;50.956;4.242;2023-06-22T12:15:38;20.95;;;18.95;;
13147;SDS011;6639;50.956;4.242;2023-06-22T12:18:05;21.73;;;19.63;;
13147;SDS011;6639;50.956;4.242;2023-06-22T12:20:35;20.00;;;18.00;;
13147;SDS011;6639;50.956;4.242;2023-06-22T12:23:02;20.00;;;18.02;;
13147;SDS011;6639;50.956;4.242;2023-06-22T12:25:29;21.48;;;19.35;;
13147;SDS011;6639;50.956;4.242;2023-06-22T12:27:56;21.20;;;18.00;;
13147;SDS011;6639;50.956;4.242;2023-06-22T12:30:22;19.13;;;17.30;;
13147;SDS011;6639;50.956;4.242;2023-06-22T12:32:49;19.50;;;17.48;;
13147;SDS011;6639;50.956;4.242;2023-06-22T12:35:16;18.90;;;17.10;;
13147;SDS011;6639;50.956;4.242;2023-06-22T12:37:45;19.60;;;17.77;;
13147;SDS011;6639;50.956;4.242;2023-06-22T12:40:12;19.75;;;17.75;;
13147;SDS011;6639;50.956;4.242;2023-06-22T12:42:39;18.67;;;16.88;;
13147;SDS011;6639;50.956;4.242;2023-06-22T12:45:07;19.02;;;17.13;;
13147;SDS011;6639;50.956;4.242;2023-06-22T12:47:34;17.90;;;16.30;;
13147;SDS011;6639;50.956;4.242;2023-06-22T12:50:01;19.80;;;17.90;;
13147;SDS011;6639;50.956;4.242;2023-06-22T12:52:29;19.02;;;17.30;;
13147;SDS011;6639;50.956;4.242;2023-06-22T12:54:58;19.50;;;17.55;;
13147;SDS011;6639;50.956;4.242;2023-06-22T12:57:25;19.92;;;17.83;;
13147;SDS011;6639;50.956;4.242;2023-06-22T12:59:52;20.45;;;18.35;;
13147;SDS011;6639;50.956;4.242;2023-06-22T13:02:19;18.33;;;16.52;;
13147;SDS011;6639;50.956;4.242;2023-06-22T13:04:46;18.83;;;17.02;;
13147;SDS011;6639;50.956;4.242;2023-06-22T13:07:13;20.17;;;17.50;;
13147;SDS011;6639;50.956;4.242;2023-06-22T13:09:40;18.92;;;16.75;;
13147;SDS011;6639;50.956;4.242;2023-06-22T13:12:08;22.63;;;18.63;;
13147;SDS011;6639;50.956;4.242;2023-06-22T13:14:35;20.77;;;18.63;;
13147;SDS011;6639;50.956;4.242;2023-06-22T13:17:02;20.40;;;18.38;;
13147;SDS011;6639;50.956;4.242;2023-06-22T13:19:29;20.33;;;18.38;;
13147;SDS011;6639;50.956;4.242;2023-06-22T13:21:57;20.63;;;18.73;;
13147;SDS011;6639;50.956;4.242;2023-06-22T13:24:25;19.42;;;17.63;;
13147;SDS011;6639;50.956;4.242;2023-06-22T13:26:52;20.05;;;18.45;;
13147;SDS011;6639;50.956;4.242;2023-06-22T13:29:20;20.95;;;18.98;;
13147;SDS011;6639;50.956;4.242;2023-06-22T13:31:47;19.52;;;17.73;;
13147;SDS011;6639;50.956;4.242;2023-06-22T13:34:14;20.75;;;18.73;;
13147;SDS011;6639;50.956;4.242;2023-06-22T13:36:41;19.33;;;17.50;;
13147;SDS011;6639;50.956;4.242;2023-06-22T13:39:08;19.70;;;17.90;;
13147;SDS011;6639;50.956;4.242;2023-06-22T13:41:34;19.33;;;17.48;;
13147;SDS011;6639;50.956;4.242;2023-06-22T13:44:01;18.77;;;16.90;;
13147;SDS011;6639;50.956;4.242;2023-06-22T13:46:30;18.63;;;16.88;;
13147;SDS011;6639;50.956;4.242;2023-06-22T13:48:57;19.50;;;17.60;;
13147;SDS011;6639;50.956;4.242;2023-06-22T13:51:24;17.88;;;16.17;;
13147;SDS011;6639;50.956;4.242;2023-06-22T13:53:50;19.45;;;17.55;;
13147;SDS011;6639;50.956;4.242;2023-06-22T13:56:17;21.95;;;19.85;;
13147;SDS011;6639;50.956;4.242;2023-06-22T13:58:44;21.73;;;19.42;;
13147;SDS011;6639;50.956;4.242;2023-06-22T14:01:11;22.48;;;20.17;;
13147;SDS011;6639;50.956;4.242;2023-06-22T14:03:39;22.92;;;20.63;;
13147;SDS011;6639;50.956;4.242;2023-06-22T14:06:06;23.15;;;20.60;;
13147;SDS011;6639;50.956;4.242;2023-06-22T14:08:35;23.92;;;21.75;;
13147;SDS011;6639;50.956;4.242;2023-06-22T14:11:03;25.40;;;22.85;;
13147;SDS011;6639;50.956;4.242;2023-06-22T14:13:30;24.67;;;22.23;;
13147;SDS011;6639;50.956;4.242;2023-06-22T14:15:57;25.45;;;22.75;;
13147;SDS011;6639;50.956;4.242;2023-06-22T14:18:24;26.90;;;24.35;;
13147;SDS011;6639;50.956;4.242;2023-06-22T14:20:52;26.83;;;24.33;;
13147;SDS011;6639;50.956;4.242;2023-06-22T14:23:20;29.33;;;26.63;;
13147;SDS011;6639;50.956;4.242;2023-06-22T14:25:47;29.40;;;26.40;;
13147;SDS011;6639;50.956;4.242;2023-06-22T14:28:14;28.48;;;25.80;;
13147;SDS011;6639;50.956;4.242;2023-06-22T14:30:41;30.35;;;27.42;;
13147;SDS011;6639;50.956;4.242;2023-06-22T14:33:08;30.77;;;27.65;;
13147;SDS011;6639;50.956;4.242;2023-06-22T14:35:35;28.98;;;26.15;;
13147;SDS011;6639;50.956;4.242;2023-06-22T14:38:04;29.98;;;26.77;;
13147;SDS011;6639;50.956;4.242;2023-06-22T14:40:31;30.38;;;27.38;;
13147;SDS011;6639;50.956;4.242;2023-06-22T14:42:57;29.45;;;26.55;;
13147;SDS011;6639;50.956;4.242;2023-06-22T14:45:24;32.80;;;29.50;;
13147;SDS011;6639;50.956;4.242;2023-06-22T14:47:51;32.03;;;28.70;;
13147;SDS011;6639;50.956;4.242;2023-06-22T14:50:18;30.90;;;27.83;;
13147;SDS011;6639;50.956;4.242;2023-06-22T14:52:45;29.35;;;26.25;;